createdAt,value
2019-04-25T00:00:45.197Z,10.47
2019-04-25T00:03:49.649Z,10.37
2019-04-25T00:06:54.143Z,10.37
2019-04-25T00:09:58.590Z,10.39
2019-04-25T00:13:03.681Z,10.51
2019-04-25T00:16:08.629Z,10.40
2019-04-25T00:19:13.449Z,10.31
2019-04-25T00:22:25.568Z,10.45
2019-04-25T00:25:34.584Z,10.45
2019-04-25T00:28:39.343Z,10.35
2019-04-25T00:31:45.116Z,10.35
2019-04-25T00:34:51.772Z,10.17
2019-04-25T00:37:56.575Z,10.20
2019-04-25T00:41:01.793Z,9.82
2019-04-25T00:44:06.323Z,9.74
2019-04-25T00:47:11.754Z,9.74
2019-04-25T00:50:16.653Z,9.89
2019-04-25T00:53:21.412Z,9.90
2019-04-25T00:56:25.852Z,10.00
2019-04-25T00:59:32.086Z,9.85
2019-04-25T01:02:38.449Z,9.80
2019-04-25T01:05:44.314Z,9.94
2019-04-25T01:08:49.815Z,9.87
2019-04-25T01:11:55.357Z,9.75
2019-04-25T01:15:01.557Z,9.88
2019-04-25T01:18:06.406Z,9.81
2019-04-25T01:21:10.846Z,9.64
2019-04-25T01:24:15.947Z,9.67
2019-04-25T01:27:20.376Z,9.85
2019-04-25T01:30:26.762Z,9.58
2019-04-25T01:33:31.193Z,9.66
2019-04-25T01:36:55.884Z,9.64
2019-04-25T01:40:01.946Z,9.61
2019-04-25T01:43:13.875Z,9.44
2019-04-25T01:46:18.353Z,9.70
2019-04-25T01:49:23.913Z,9.53
2019-04-25T01:52:28.410Z,9.65
2019-04-25T01:55:33.581Z,9.64
2019-04-25T01:58:38.520Z,9.53
2019-04-25T02:01:44.042Z,9.47
2019-04-25T02:04:48.528Z,9.73
2019-04-25T02:07:54.773Z,9.53
2019-04-25T02:11:00.821Z,9.43
2019-04-25T02:14:05.958Z,9.39
2019-04-25T02:17:10.692Z,9.23
2019-04-25T02:20:15.181Z,9.49
2019-04-25T02:23:19.675Z,9.44
2019-04-25T02:26:24.379Z,9.33
2019-04-25T02:29:28.809Z,9.31
2019-04-25T02:32:34.279Z,9.58
2019-04-25T02:35:42.869Z,9.72
2019-04-25T02:38:45.560Z,9.82
2019-04-25T02:41:50.384Z,9.73
2019-04-25T02:45:04.170Z,9.71
2019-04-25T02:48:26.321Z,9.74
2019-04-25T02:51:34.832Z,9.79
2019-04-25T02:54:39.102Z,9.82
2019-04-25T02:57:44.919Z,9.75
2019-04-25T03:00:59.795Z,9.63
2019-04-25T03:03:57.435Z,9.71
2019-04-25T03:07:07.045Z,9.82
2019-04-25T03:10:11.440Z,9.91
2019-04-25T03:13:15.934Z,9.97
2019-04-25T03:16:20.714Z,9.78
2019-04-25T03:19:28.332Z,9.81
2019-04-25T03:22:34.408Z,9.88
2019-04-25T03:25:39.273Z,9.93
2019-04-25T03:28:44.044Z,9.99
2019-04-25T03:31:48.477Z,10.14
2019-04-25T03:34:53.122Z,10.01
2019-04-25T03:38:01.117Z,10.04
2019-04-25T03:41:06.147Z,10.03
2019-04-25T03:44:12.526Z,9.99
2019-04-25T03:47:17.656Z,9.84
2019-04-25T03:50:23.258Z,9.64
2019-04-25T03:53:27.798Z,9.56
2019-04-25T03:56:33.372Z,9.48
2019-04-25T03:59:37.929Z,9.56
2019-04-25T04:02:44.295Z,9.42
2019-04-25T04:05:49.111Z,9.50
2019-04-25T04:08:53.964Z,9.52
2019-04-25T04:11:58.342Z,9.55
2019-04-25T04:15:04.758Z,9.33
2019-04-25T04:18:16.246Z,9.05
2019-04-25T04:21:23.084Z,8.80
2019-04-25T04:24:29.536Z,9.12
2019-04-25T04:27:35.147Z,9.29
2019-04-25T04:30:39.683Z,9.48
2019-04-25T04:33:44.101Z,9.88
2019-04-25T04:36:48.539Z,9.56
2019-04-25T04:39:53.626Z,9.28
2019-04-25T04:42:58.463Z,9.31
2019-04-25T04:46:03.945Z,9.30
2019-04-25T04:49:08.783Z,9.44
2019-04-25T04:52:14.727Z,9.53
2019-04-25T04:55:19.748Z,9.40
2019-04-25T04:58:25.127Z,9.26
2019-04-25T05:01:31.339Z,9.38
2019-04-25T05:04:53.669Z,9.26
2019-04-25T05:08:00.071Z,9.28
2019-04-25T05:11:04.816Z,9.32
2019-04-25T05:14:09.242Z,9.35
2019-04-25T05:17:15.168Z,9.34
2019-04-25T05:20:20.176Z,9.49
2019-04-25T05:23:24.917Z,9.54
2019-04-25T05:26:29.459Z,9.73
2019-04-25T05:29:34.092Z,9.93
2019-04-25T05:32:38.854Z,10.10
2019-04-25T05:35:44.145Z,10.37
2019-04-25T05:38:48.689Z,10.32
2019-04-25T05:41:54.774Z,10.37
2019-04-25T05:45:00.019Z,10.41
2019-04-25T05:48:06.086Z,10.55
2019-04-25T05:51:10.685Z,10.73
2019-04-25T05:54:16.509Z,10.93
2019-04-25T05:57:23.603Z,11.08
2019-04-25T06:00:28.686Z,11.25
2019-04-25T06:03:33.934Z,11.51
2019-04-25T06:06:38.970Z,11.75
2019-04-25T06:09:44.432Z,12.04
2019-04-25T06:13:07.190Z,12.29
2019-04-25T06:16:13.551Z,12.60
2019-04-25T06:19:20.922Z,13.14
2019-04-25T06:22:43.966Z,13.89
2019-04-25T06:25:48.718Z,14.63
2019-04-25T06:28:58.967Z,15.24
2019-04-25T06:32:06.626Z,16.21
2019-04-25T06:35:07.462Z,17.56
2019-04-25T06:38:13.376Z,18.59
2019-04-25T06:41:17.860Z,19.39
2019-04-25T06:44:27.188Z,18.45
2019-04-25T06:47:44.283Z,17.51
2019-04-25T06:50:48.782Z,16.74
2019-04-25T06:53:53.478Z,16.33
2019-04-25T06:56:58.058Z,16.36
2019-04-25T07:00:04.417Z,16.41
2019-04-25T07:03:09.066Z,16.64
2019-04-25T07:06:14.755Z,17.06
2019-04-25T07:09:19.370Z,16.87
2019-04-25T07:12:26.740Z,16.71
2019-04-25T07:15:30.628Z,16.62
2019-04-25T07:18:37.076Z,16.36
2019-04-25T07:21:41.523Z,16.23
2019-04-25T07:24:45.966Z,16.70
2019-04-25T07:27:53.444Z,16.94
2019-04-25T07:31:08.431Z,17.44
2019-04-25T07:34:14.519Z,17.41
2019-04-25T07:37:19.019Z,17.59
2019-04-25T07:40:25.572Z,17.72
2019-04-25T07:43:30.179Z,17.91
2019-04-25T07:46:39.247Z,18.01
2019-04-25T07:49:40.831Z,18.55
2019-04-25T07:52:45.521Z,18.99
2019-04-25T07:55:49.962Z,19.33
2019-04-25T07:58:54.861Z,19.31
2019-04-25T08:01:59.320Z,19.35
2019-04-25T08:05:05.669Z,19.36
2019-04-25T08:08:10.403Z,19.71
2019-04-25T08:11:14.910Z,20.01
2019-04-25T08:14:30.525Z,20.00
2019-04-25T08:17:46.609Z,19.75
2019-04-25T08:20:51.120Z,20.20
2019-04-25T08:23:56.231Z,20.37
2019-04-25T08:27:00.946Z,20.70
2019-04-25T08:30:06.924Z,20.81
2019-04-25T08:33:11.432Z,20.37
2019-04-25T08:36:15.955Z,20.21
2019-04-25T08:39:20.389Z,20.46
2019-04-25T08:42:25.195Z,20.80
2019-04-25T08:45:30.629Z,20.80
2019-04-25T08:48:49.317Z,21.01
2019-04-25T08:51:56.318Z,21.41
2019-04-25T08:55:05.501Z,21.65
2019-04-25T08:58:15.573Z,21.84
2019-04-25T09:01:23.535Z,21.54
2019-04-25T09:04:38.511Z,21.61
2019-04-25T09:07:44.479Z,21.48
2019-04-25T09:10:49.126Z,21.51
2019-04-25T09:13:53.854Z,21.62
2019-04-25T09:16:58.387Z,21.89
2019-04-25T09:20:04.011Z,21.96
2019-04-25T09:23:08.544Z,21.89
2019-04-25T09:26:14.300Z,21.86
2019-04-25T09:29:19.941Z,22.12
2019-04-25T09:32:24.524Z,22.27
2019-04-25T09:35:29.029Z,22.45
2019-04-25T09:38:34.775Z,22.60
2019-04-25T09:41:39.897Z,22.38
2019-04-25T09:45:03.770Z,22.61
2019-04-25T09:48:09.991Z,22.68
2019-04-25T09:51:24.814Z,22.84
2019-04-25T09:54:30.908Z,23.21
2019-04-25T09:57:39.716Z,23.51
2019-04-25T10:00:46.008Z,23.62
2019-04-25T10:03:50.416Z,23.40
2019-04-25T10:06:55.339Z,23.22
2019-04-25T10:09:59.850Z,23.14
2019-04-25T10:13:06.593Z,23.27
2019-04-25T10:16:13.321Z,23.51
2019-04-25T10:19:18.157Z,23.96
2019-04-25T10:22:23.746Z,23.97
2019-04-25T10:25:28.642Z,23.89
2019-04-25T10:28:33.714Z,23.83
2019-04-25T10:31:38.286Z,23.89
2019-04-25T10:34:44.854Z,24.11
2019-04-25T10:37:48.993Z,24.31
2019-04-25T10:40:53.686Z,24.22
2019-04-25T10:43:58.251Z,24.06
2019-04-25T10:47:02.693Z,24.03
2019-04-25T10:50:08.690Z,24.28
2019-04-25T10:53:13.469Z,24.52
2019-04-25T10:56:17.972Z,24.85
2019-04-25T10:59:23.613Z,24.87
2019-04-25T11:02:28.911Z,24.79
2019-04-25T11:05:34.270Z,24.95
2019-04-25T11:08:39.507Z,25.12
2019-04-25T11:11:45.814Z,25.24
2019-04-25T11:14:50.310Z,24.95
2019-04-25T11:17:55.107Z,25.15
2019-04-25T11:20:59.829Z,25.38
2019-04-25T11:24:04.612Z,25.39
2019-04-25T11:27:09.602Z,25.46
2019-04-25T11:30:15.270Z,25.76
2019-04-25T11:33:19.851Z,26.10
2019-04-25T11:36:25.075Z,26.11
2019-04-25T11:39:31.505Z,26.16
2019-04-25T11:42:35.951Z,26.33
2019-04-25T11:45:41.366Z,26.55
2019-04-25T11:48:46.394Z,26.60
2019-04-25T11:51:50.894Z,26.46
2019-04-25T11:54:55.754Z,26.45
2019-04-25T11:58:00.382Z,26.66
2019-04-25T12:01:05.358Z,26.82
2019-04-25T12:04:09.869Z,26.78
2019-04-25T12:07:14.472Z,26.92
2019-04-25T12:10:20.556Z,27.13
2019-04-25T12:13:25.001Z,26.92
2019-04-25T12:16:29.508Z,27.20
2019-04-25T12:19:37.722Z,27.00
2019-04-25T12:22:40.159Z,26.51
2019-04-25T12:25:46.236Z,26.61
2019-04-25T12:28:51.459Z,26.63
2019-04-25T12:31:56.336Z,26.70
2019-04-25T12:35:00.927Z,26.89
2019-04-25T12:38:05.509Z,27.10
2019-04-25T12:41:09.946Z,27.27
2019-04-25T12:44:16.029Z,27.20
2019-04-25T12:47:23.876Z,27.40
2019-04-25T12:50:28.267Z,27.60
2019-04-25T12:53:33.373Z,27.71
2019-04-25T12:56:39.264Z,27.68
2019-04-25T12:59:47.304Z,27.75
2019-04-25T13:02:50.283Z,27.60
2019-04-25T13:05:54.734Z,27.56
2019-04-25T13:08:59.500Z,27.44
2019-04-25T13:12:06.008Z,27.41
2019-04-25T13:15:11.105Z,27.49
2019-04-25T13:18:15.757Z,27.28
2019-04-25T13:21:20.209Z,27.42
2019-04-25T13:24:24.644Z,27.36
2019-04-25T13:27:30.724Z,27.33
2019-04-25T13:30:59.904Z,27.57
2019-04-25T13:34:08.526Z,27.44
2019-04-25T13:37:14.126Z,27.27
2019-04-25T13:40:18.682Z,26.98
2019-04-25T13:43:23.423Z,26.13
2019-04-25T13:46:28.260Z,26.44
2019-04-25T13:49:32.778Z,26.44
2019-04-25T13:52:37.292Z,26.37
2019-04-25T13:55:41.798Z,26.30
2019-04-25T13:58:46.568Z,26.04
2019-04-25T14:01:51.908Z,26.36
2019-04-25T14:04:56.419Z,26.55
2019-04-25T14:08:00.934Z,26.69
2019-04-25T14:11:05.700Z,26.95
2019-04-25T14:14:10.529Z,27.04
2019-04-25T14:17:33.822Z,27.11
2019-04-25T14:20:45.911Z,26.87
2019-04-25T14:23:50.341Z,27.17
2019-04-25T14:26:55.053Z,27.38
2019-04-25T14:29:59.581Z,27.29
2019-04-25T14:33:04.479Z,27.39
2019-04-25T14:36:08.992Z,27.65
2019-04-25T14:39:14.278Z,27.69
2019-04-25T14:42:18.729Z,27.94
2019-04-25T14:45:24.453Z,27.87
2019-04-25T14:48:29.384Z,27.59
2019-04-25T14:51:33.969Z,27.64
2019-04-25T14:54:42.796Z,27.80
2019-04-25T14:57:47.584Z,27.38
2019-04-25T15:00:53.130Z,27.15
2019-04-25T15:03:57.865Z,26.69
2019-04-25T15:07:02.317Z,26.44
2019-04-25T15:10:07.417Z,26.13
2019-04-25T15:13:12.300Z,25.96
2019-04-25T15:16:16.742Z,25.97
2019-04-25T15:19:21.179Z,25.94
2019-04-25T15:22:25.719Z,26.03
2019-04-25T15:25:30.141Z,26.01
2019-04-25T15:28:34.580Z,26.02
2019-04-25T15:31:39.070Z,26.08
2019-04-25T15:34:47.838Z,26.03
2019-04-25T15:38:10.092Z,25.65
2019-04-25T15:41:22.694Z,25.71
2019-04-25T15:44:28.768Z,25.68
2019-04-25T15:47:34.058Z,25.98
2019-04-25T15:50:38.674Z,26.06
2019-04-25T15:53:43.180Z,26.16
2019-04-25T15:56:47.623Z,25.93
2019-04-25T15:59:52.060Z,25.72
2019-04-25T16:02:56.504Z,25.51
2019-04-25T16:06:00.948Z,25.35
2019-04-25T16:09:07.493Z,25.28
2019-04-25T16:12:12.405Z,25.15
2019-04-25T16:15:16.847Z,25.19
2019-04-25T16:18:21.624Z,25.41
2019-04-25T16:21:26.754Z,25.51
2019-04-25T16:24:32.310Z,25.31
2019-04-25T16:27:36.696Z,25.31
2019-04-25T16:30:41.461Z,25.21
2019-04-25T16:33:45.897Z,25.30
2019-04-25T16:36:50.334Z,25.33
2019-04-25T16:39:54.779Z,25.36
2019-04-25T16:43:00.864Z,25.37
2019-04-25T16:46:05.443Z,25.17
2019-04-25T16:49:09.879Z,25.16
2019-04-25T16:52:17.612Z,25.02
2019-04-25T16:55:22.173Z,24.91
2019-04-25T16:58:26.611Z,24.81
2019-04-25T17:01:31.681Z,24.72
2019-04-25T17:04:37.498Z,24.61
2019-04-25T17:07:42.318Z,24.58
2019-04-25T17:10:47.191Z,24.49
2019-04-25T17:14:02.157Z,24.43
2019-04-25T17:17:11.459Z,24.30
2019-04-25T17:20:26.549Z,24.28
2019-04-25T17:23:32.278Z,24.30
2019-04-25T17:26:36.862Z,24.23
2019-04-25T17:29:41.300Z,24.18
2019-04-25T17:32:56.371Z,24.14
2019-04-25T17:36:02.484Z,24.08
2019-04-25T17:39:25.774Z,23.98
2019-04-25T17:42:30.478Z,23.94
2019-04-25T17:45:35.297Z,23.91
2019-04-25T17:48:40.481Z,24.03
2019-04-25T17:51:45.041Z,23.58
2019-04-25T17:54:49.485Z,23.15
2019-04-25T17:57:53.928Z,22.86
2019-04-25T18:00:58.831Z,22.35
2019-04-25T18:04:03.646Z,22.09
2019-04-25T18:07:08.453Z,21.81
2019-04-25T18:10:13.166Z,21.55
2019-04-25T18:13:18.000Z,21.30
2019-04-25T18:16:26.737Z,21.04
2019-04-25T18:19:36.367Z,20.77
2019-04-25T18:22:45.093Z,20.54
2019-04-25T18:26:00.243Z,20.28
2019-04-25T18:29:06.329Z,20.09
2019-04-25T18:32:10.764Z,19.94
2019-04-25T18:35:16.852Z,19.70
2019-04-25T18:38:28.871Z,19.65
2019-04-25T18:41:35.414Z,19.60
2019-04-25T18:44:40.774Z,19.29
2019-04-25T18:47:45.452Z,19.23
2019-04-25T18:50:49.899Z,18.96
2019-04-25T18:53:58.796Z,18.95
2019-04-25T18:57:13.857Z,18.75
2019-04-25T19:00:20.250Z,18.38
2019-04-25T19:03:27.455Z,18.14
2019-04-25T19:06:32.029Z,17.87
2019-04-25T19:09:36.471Z,17.59
2019-04-25T19:12:41.206Z,17.24
2019-04-25T19:15:45.868Z,17.34
2019-04-25T19:18:50.302Z,17.10
2019-04-25T19:21:54.738Z,17.10
2019-04-25T19:24:59.423Z,16.85
2019-04-25T19:28:03.858Z,16.73
2019-04-25T19:31:08.365Z,16.61
2019-04-25T19:34:12.802Z,16.46
2019-04-25T19:37:17.244Z,16.25
2019-04-25T19:40:24.141Z,16.22
2019-04-25T19:43:30.214Z,16.06
2019-04-25T19:46:45.025Z,15.78
2019-04-25T19:49:49.837Z,15.76
2019-04-25T19:52:54.367Z,15.65
2019-04-25T19:55:58.839Z,15.40
2019-04-25T19:59:03.547Z,15.32
2019-04-25T20:02:09.633Z,15.23
2019-04-25T20:05:16.389Z,15.34
2019-04-25T20:08:25.125Z,15.21
2019-04-25T20:11:44.196Z,15.11
2019-04-25T20:14:50.039Z,14.93
2019-04-25T20:17:54.489Z,14.95
2019-04-25T20:20:59.218Z,14.89
2019-04-25T20:24:03.658Z,14.70
2019-04-25T20:27:08.093Z,14.60
2019-04-25T20:30:13.671Z,14.70
2019-04-25T20:33:18.124Z,14.67
2019-04-25T20:36:22.564Z,14.54
2019-04-25T20:39:27.819Z,14.52
2019-04-25T20:42:32.389Z,14.52
2019-04-25T20:45:36.845Z,14.33
2019-04-25T20:48:41.284Z,14.18
2019-04-25T20:51:47.064Z,14.23
2019-04-25T20:54:51.550Z,14.20
2019-04-25T20:57:56.269Z,14.27
2019-04-25T21:01:02.343Z,14.17
2019-04-25T21:04:13.337Z,14.04
2019-04-25T21:07:14.966Z,13.94
2019-04-25T21:10:19.428Z,13.88
2019-04-25T21:13:28.725Z,14.00
2019-04-25T21:16:37.527Z,13.91
2019-04-25T21:19:48.830Z,13.71
2019-04-25T21:22:53.750Z,13.80
2019-04-25T21:25:59.056Z,13.48
2019-04-25T21:29:03.569Z,13.60
2019-04-25T21:32:08.272Z,13.46
2019-04-25T21:35:12.703Z,13.52
2019-04-25T21:38:17.148Z,13.42
2019-04-25T21:41:39.314Z,13.56
2019-04-25T21:44:44.027Z,13.46
2019-04-25T21:47:48.475Z,13.49
2019-04-25T21:50:53.656Z,13.64
2019-04-25T21:53:59.282Z,13.66
2019-04-25T21:57:03.992Z,13.57
2019-04-25T22:00:12.554Z,13.39
2019-04-25T22:03:19.255Z,13.20
2019-04-25T22:06:24.309Z,13.08
2019-04-25T22:09:28.710Z,13.09
2019-04-25T22:12:33.435Z,13.28
2019-04-25T22:15:38.157Z,13.37
2019-04-25T22:18:42.874Z,13.09
2019-04-25T22:21:47.598Z,12.91
2019-04-25T22:24:52.022Z,12.72
2019-04-25T22:27:56.659Z,12.39
2019-04-25T22:31:03.683Z,12.22
2019-04-25T22:34:12.458Z,12.24
2019-04-25T22:37:17.327Z,12.39
2019-04-25T22:40:22.411Z,12.40
2019-04-25T22:43:28.227Z,12.37
2019-04-25T22:46:32.816Z,12.44
2019-04-25T22:49:37.671Z,12.22
2019-04-25T22:52:42.393Z,11.75
2019-04-25T22:55:46.826Z,11.80
2019-04-25T22:58:51.275Z,11.90
2019-04-25T23:02:02.401Z,11.95
2019-04-25T23:05:27.570Z,11.98
2019-04-25T23:08:32.273Z,11.55
2019-04-25T23:11:36.775Z,11.63
2019-04-25T23:14:41.689Z,11.31
2019-04-25T23:17:46.457Z,11.35
2019-04-25T23:20:51.186Z,11.27
2019-04-25T23:23:55.892Z,11.23
2019-04-25T23:27:16.927Z,11.54
2019-04-25T23:30:22.998Z,11.73
2019-04-25T23:33:27.442Z,11.35
2019-04-25T23:36:31.954Z,11.13
2019-04-25T23:39:36.394Z,11.21
2019-04-25T23:42:40.904Z,11.12
2019-04-25T23:45:45.618Z,11.15
2019-04-25T23:48:50.669Z,11.24
2019-04-25T23:51:55.104Z,11.33
2019-04-25T23:54:59.820Z,11.48
2019-04-25T23:58:04.548Z,11.62
